Terminal Aerodrome Forecast
Issued by NWS

Home | Current Version | Previous Version | Text Only | Print | Product List | Glossary On
Versions: 1 2 3 4 5 6 7 8 9 10 11 12 13 14 15 16 17 18 19 20 21 22 23 24 25 26
000
FTUS41 KBUF 021200 AAA
TAFJHW
TAF AMD
KJHW 021201Z 0212/0312 24011G18KT 2SM -SN BR OVC012
     FM021500 27015KT 5SM -SN BR OVC015
     FM021800 28016KT P6SM VCSH BKN025
     FM022200 29014KT P6SM BKN050
     FM030400 30004KT P6SM SCT050
     FM031100 16007KT P6SM OVC110
      AMD LTD TO CLD VIS AND WIND=

USA.gov is the U.S. government's official web portal to all federal, state and local government web resources and services.